Time;durP1;ratioP1;P1;durP2;ratioP2;P2;SDS_P1;SDS_P2;PMS_P1;PMS_P2;Temp;Humidity;BMP_temperature;BMP_pressure;BME280_temperature;BME280_humidity;BME280_pressure;Samples;Min_cycle;Max_cycle;Signal;HPM_P1;HPM_P2
2022/12/15 00:38:41;;;;;;;15.93;13.00;;;;;;;-142.91;100.00;56616.03;4996115;28;20219;-68
2022/12/15 00:41:10;;;;;;;15.07;12.50;;;;;;;-142.91;100.00;56616.03;4995873;28;20685;-67
2022/12/15 00:43:37;;;;;;;15.57;12.50;;;;;;;-142.91;100.00;56616.03;4996082;28;20284;-69
2022/12/15 00:48:49;;;;;;;17.87;14.27;;;;;;;-142.91;100.00;56616.03;4996301;28;20283;-68
2022/12/15 00:51:16;;;;;;;17.67;14.07;;;;;;;-142.91;100.00;56616.03;4996265;28;20250;-68
2022/12/15 01:21:11;;;;;;;18.42;13.77;;;;;;;-142.91;100.00;56616.03;4995794;28;20214;-68
2022/12/15 01:23:39;;;;;;;16.40;13.18;;;;;;;-142.91;100.00;56616.03;4994534;28;20207;-68
2022/12/15 01:26:07;;;;;;;17.17;14.10;;;;;;;-142.91;100.00;56616.03;4994524;28;20212;-65
2022/12/15 01:28:35;;;;;;;15.70;13.75;;;;;;;-142.91;100.00;56616.03;4993864;28;20203;-68
2022/12/15 01:31:02;;;;;;;18.67;15.80;;;;;;;-142.91;100.00;56616.03;4993830;28;20670;-67
2022/12/15 01:33:29;;;;;;;19.13;14.25;;;;;;;-142.91;100.00;56616.03;4994480;28;20336;-66
2022/12/15 01:36:00;;;;;;;16.88;13.85;;;;;;;-142.91;100.00;56616.03;4994361;28;20231;-67
2022/12/15 01:38:28;;;;;;;17.65;13.52;;;;;;;-142.91;100.00;56616.03;4993995;28;20703;-69
2022/12/15 01:40:56;;;;;;;19.25;13.77;;;;;;;-142.91;100.00;56616.03;4991926;28;20299;-67
2022/12/15 01:43:25;;;;;;;23.60;15.07;;;;;;;-142.91;100.00;56616.03;4994433;28;20681;-68
2022/12/15 01:46:06;;;;;;;17.35;15.32;;;;;;;-142.91;100.00;56616.03;4993055;28;20564;-68
2022/12/15 01:48:41;;;;;;;22.20;15.00;;;;;;;-142.91;100.00;56616.03;4994182;28;20308;-68
2022/12/15 01:51:14;;;;;;;19.57;14.40;;;;;;;-142.91;100.00;56616.03;4993172;28;20302;-70
2022/12/15 01:53:45;;;;;;;19.83;15.37;;;;;;;-142.91;100.00;56616.03;4994837;28;20715;-68
2022/12/15 01:56:12;;;;;;;18.07;12.67;;;;;;;-142.91;100.00;56616.03;4993834;28;20271;-66
2022/12/15 01:58:42;;;;;;;14.85;12.35;;;;;;;-142.91;100.00;56616.03;4993630;28;20265;-67
2022/12/15 02:01:11;;;;;;;14.07;12.47;;;;;;;-142.91;100.00;56616.03;4994552;28;20199;-67
2022/12/15 02:03:39;;;;;;;18.38;13.45;;;;;;;-142.91;100.00;56616.03;4994274;28;20241;-67
2022/12/15 02:06:08;;;;;;;19.40;12.83;;;;;;;-142.91;100.00;56616.03;4994880;28;20199;-67
2022/12/15 02:08:36;;;;;;;15.77;12.73;;;;;;;-142.91;100.00;56616.03;4994958;28;20330;-67
2022/12/15 02:11:18;;;;;;;15.23;12.43;;;;;;;-142.91;100.00;56616.03;4993710;28;20298;-65
2022/12/15 02:13:55;;;;;;;15.83;12.00;;;;;;;-142.91;100.00;56616.03;4994532;28;20899;-68
2022/12/15 02:16:31;;;;;;;13.40;11.05;;;;;;;-142.91;100.00;56616.03;4998028;28;20726;-68
2022/12/15 02:19:10;;;;;;;12.80;11.50;;;;;;;-142.91;100.00;56616.03;4994122;28;20235;-68
2022/12/15 02:21:42;;;;;;;14.48;12.00;;;;;;;-142.91;100.00;56616.03;4992794;28;20247;-68
2022/12/15 02:24:30;;;;;;;14.05;11.88;;;;;;;-142.91;100.00;56616.03;4994560;28;20207;-69
2022/12/15 02:27:24;;;;;;;13.27;11.50;;;;;;;-142.91;100.00;56616.03;4993969;28;20213;-65
2022/12/15 02:30:25;;;;;;;14.07;10.88;;;;;;;-142.91;100.00;56616.03;4993471;28;20207;-67
2022/12/15 02:33:21;;;;;;;15.30;12.37;;;;;;;-142.91;100.00;56616.03;4994872;28;20207;-66
2022/12/15 02:35:56;;;;;;;15.23;13.17;;;;;;;-142.91;100.00;56616.03;4991958;28;20223;-67
2022/12/15 02:38:34;;;;;;;18.10;12.52;;;;;;;-142.91;100.00;56616.03;4995461;28;20211;-66
2022/12/15 02:41:03;;;;;;;19.02;14.18;;;;;;;-142.91;100.00;56616.03;4994081;28;20195;-67
2022/12/15 02:43:33;;;;;;;18.00;13.15;;;;;;;-142.91;100.00;56616.03;4997673;28;20249;-65
2022/12/15 02:46:16;;;;;;;15.03;12.87;;;;;;;-142.91;100.00;56616.03;4998453;28;20256;-68
2022/12/15 02:48:59;;;;;;;16.23;13.37;;;;;;;-142.91;100.00;56616.03;4998164;28;20211;-67
2022/12/15 02:51:38;;;;;;;18.27;13.77;;;;;;;-142.91;100.00;56616.03;4997352;28;20278;-68
2022/12/15 02:54:28;;;;;;;18.85;14.52;;;;;;;-142.91;100.00;56616.03;4997951;28;20265;-67
2022/12/15 02:57:04;;;;;;;19.80;15.00;;;;;;;-142.91;100.00;56616.03;4997294;28;20289;-67
2022/12/15 02:59:40;;;;;;;18.38;14.35;;;;;;;-142.91;100.00;56616.03;4997690;28;20199;-67
2022/12/15 03:02:10;;;;;;;20.30;13.82;;;;;;;-142.91;100.00;56616.03;4995351;28;20237;-67
2022/12/15 03:04:37;;;;;;;13.07;11.63;;;;;;;-142.91;100.00;56616.03;4998395;28;20203;-67
2022/12/15 03:07:08;;;;;;;20.27;12.70;;;;;;;-142.91;100.00;56616.03;4997499;28;20200;-66
2022/12/15 03:09:35;;;;;;;17.20;11.02;;;;;;;-142.91;100.00;56616.03;4997325;28;20293;-67
2022/12/15 03:12:02;;;;;;;15.38;11.68;;;;;;;-142.91;100.00;56616.03;4995806;28;20686;-67
2022/12/15 03:14:29;;;;;;;12.83;11.37;;;;;;;-142.91;100.00;56616.03;4998478;28;20200;-67
2022/12/15 03:16:56;;;;;;;12.40;11.10;;;;;;;-142.91;100.00;56616.03;4998805;28;20214;-64
2022/12/15 03:19:24;;;;;;;11.00;9.65;;;;;;;-142.91;100.00;56616.03;4997449;28;22002;-65
2022/12/15 03:21:51;;;;;;;12.50;9.32;;;;;;;-142.91;100.00;56616.03;4996331;28;20215;-69
2022/12/15 03:24:18;;;;;;;10.73;9.63;;;;;;;-142.91;100.00;56616.03;4997373;28;20663;-66
2022/12/15 03:26:48;;;;;;;15.33;11.13;;;;;;;-142.91;100.00;56616.03;4997240;28;20723;-68
2022/12/15 03:29:15;;;;;;;12.13;10.20;;;;;;;-142.91;100.00;56616.03;4997388;28;20611;-65
2022/12/15 03:31:42;;;;;;;16.03;11.10;;;;;;;-142.91;100.00;56616.03;4995248;28;20203;-67
2022/12/15 03:34:08;;;;;;;12.85;10.52;;;;;;;-142.91;100.00;56616.03;4996659;28;20697;-68
2022/12/15 03:36:37;;;;;;;10.80;9.70;;;;;;;-142.91;100.00;56616.03;4996629;28;20308;-68
2022/12/15 03:39:04;;;;;;;10.88;9.85;;;;;;;-142.91;100.00;56616.03;4996666;28;20707;-65
2022/12/15 03:41:31;;;;;;;14.50;10.17;;;;;;;-142.91;100.00;56616.03;4996206;28;20203;-67
2022/12/15 03:43:57;;;;;;;13.83;10.53;;;;;;;-142.91;100.00;56616.03;4995176;28;20262;-68
2022/12/15 03:46:24;;;;;;;12.27;10.05;;;;;;;-142.91;100.00;56616.03;4996927;28;20749;-70
2022/12/15 03:48:51;;;;;;;13.77;11.47;;;;;;;-142.91;100.00;56616.03;4996346;28;20611;-69
2022/12/15 03:51:18;;;;;;;13.63;10.57;;;;;;;-142.91;100.00;56616.03;4996982;28;20227;-70
2022/12/15 03:53:48;;;;;;;11.77;10.50;;;;;;;-142.91;100.00;56616.03;4996309;28;20204;-68
2022/12/15 03:56:15;;;;;;;13.75;11.07;;;;;;;-142.91;100.00;56616.03;4998886;28;20228;-66
2022/12/15 03:58:41;;;;;;;14.30;11.20;;;;;;;-142.91;100.00;56616.03;5001362;28;20204;-67
2022/12/15 04:01:13;;;;;;;11.68;10.48;;;;;;;-142.91;100.00;56616.03;4997748;28;20270;-67
2022/12/15 04:03:39;;;;;;;12.40;11.13;;;;;;;-142.91;100.00;56616.03;4997331;28;20588;-69
2022/12/15 04:06:06;;;;;;;13.17;10.43;;;;;;;-142.91;100.00;56616.03;4997572;28;20277;-70
2022/12/15 04:08:33;;;;;;;9.90;8.90;;;;;;;-142.91;100.00;56616.03;4995504;28;20293;-66
2022/12/15 04:11:01;;;;;;;11.00;9.77;;;;;;;-142.91;100.00;56616.03;4995683;28;20200;-70
2022/12/15 04:13:28;;;;;;;11.65;10.30;;;;;;;-142.91;100.00;56616.03;4996383;28;20227;-69
2022/12/15 04:15:55;;;;;;;10.52;9.35;;;;;;;-142.91;100.00;56616.03;4999841;28;20651;-67
2022/12/15 04:18:22;;;;;;;9.82;8.70;;;;;;;-142.91;100.00;56616.03;4996794;28;20283;-68
2022/12/15 04:20:48;;;;;;;12.30;10.32;;;;;;;-142.91;100.00;56616.03;4996982;28;21478;-67
2022/12/15 04:23:14;;;;;;;10.80;9.70;;;;;;;-142.91;100.00;56616.03;4994064;28;20338;-70
2022/12/15 05:31:50;;;;;;;12.48;10.02;;;;;;;-142.91;100.00;56616.03;4995834;28;20699;-67
2022/12/15 05:34:20;;;;;;;16.10;11.88;;;;;;;-142.91;100.00;56616.03;4993681;28;20231;-65
2022/12/15 05:36:47;;;;;;;22.80;13.20;;;;;;;-142.91;100.00;56616.03;4995314;28;20219;-66
2022/12/15 05:39:14;;;;;;;22.25;15.45;;;;;;;-142.91;100.00;56616.03;4992294;28;20207;-68
2022/12/15 05:41:41;;;;;;;17.08;13.80;;;;;;;-142.91;100.00;56616.03;4994720;28;20330;-66
2022/12/15 05:44:08;;;;;;;21.27;14.52;;;;;;;-142.91;100.00;56616.03;4995756;28;20207;-68
2022/12/15 05:46:35;;;;;;;16.27;12.77;;;;;;;-142.91;100.00;56616.03;4995129;28;20199;-65
2022/12/15 05:49:03;;;;;;;21.17;14.00;;;;;;;-142.91;100.00;56616.03;4996315;28;20571;-69
2022/12/15 05:51:32;;;;;;;17.65;13.85;;;;;;;-142.91;100.00;56616.03;4995584;28;20203;-69
2022/12/15 05:53:59;;;;;;;16.10;12.57;;;;;;;-142.91;100.00;56616.03;4995228;28;20208;-65
2022/12/15 05:56:27;;;;;;;16.05;10.50;;;;;;;-142.91;100.00;56616.03;4993823;28;20306;-68
2022/12/15 05:58:56;;;;;;;15.00;10.98;;;;;;;-142.91;100.00;56616.03;4994923;28;20333;-66
2022/12/15 06:01:23;;;;;;;12.60;10.30;;;;;;;-142.91;100.00;56616.03;4993110;28;20214;-69
2022/12/15 06:03:50;;;;;;;14.73;11.05;;;;;;;-142.91;100.00;56616.03;4994361;28;20622;-69
2022/12/15 06:06:17;;;;;;;13.50;11.00;;;;;;;-142.91;100.00;56616.03;4994658;28;21156;-68
2022/12/15 06:08:45;;;;;;;13.30;9.80;;;;;;;-142.91;100.00;56616.03;4991263;28;20684;-64
2022/12/15 06:11:13;;;;;;;14.10;12.07;;;;;;;-142.91;100.00;56616.03;4992650;28;20334;-68
2022/12/15 06:13:41;;;;;;;12.25;10.55;;;;;;;-142.91;100.00;56616.03;4992974;28;20211;-65
2022/12/15 06:16:11;;;;;;;12.20;10.15;;;;;;;-142.91;100.00;56616.03;5000212;28;20231;-70
2022/12/15 06:18:39;;;;;;;14.90;11.00;;;;;;;-142.91;100.00;56616.03;4997289;28;20673;-68
2022/12/15 06:21:07;;;;;;;14.48;10.52;;;;;;;-142.91;100.00;56616.03;4997680;28;20200;-66
2022/12/15 06:23:36;;;;;;;12.80;10.73;;;;;;;-142.91;100.00;56616.03;4997512;28;20285;-67
2022/12/15 06:26:11;;;;;;;18.77;13.95;;;;;;;-142.91;100.00;56616.03;4997486;28;20203;-69
2022/12/15 06:28:38;;;;;;;11.32;9.95;;;;;;;-142.91;100.00;56616.03;4997203;28;20211;-68
2022/12/15 06:31:06;;;;;;;12.35;9.40;;;;;;;-142.91;100.00;56616.03;4997493;28;20207;-67
2022/12/15 06:33:34;;;;;;;10.60;9.50;;;;;;;-142.91;100.00;56616.03;4997196;28;20325;-66
2022/12/15 06:36:03;;;;;;;10.18;9.18;;;;;;;-142.91;100.00;56616.03;4998379;28;20862;-67
2022/12/15 06:38:30;;;;;;;12.68;9.38;;;;;;;-142.91;100.00;56616.03;4994575;28;20210;-66
2022/12/15 06:40:58;;;;;;;11.35;9.40;;;;;;;-142.91;100.00;56616.03;4993441;28;20207;-68
2022/12/15 06:43:26;;;;;;;10.82;9.60;;;;;;;-142.91;100.00;56616.03;4994635;28;20750;-70
2022/12/15 06:45:53;;;;;;;10.38;9.38;;;;;;;-142.91;100.00;56616.03;4995935;28;22838;-69
2022/12/15 06:48:20;;;;;;;12.52;9.15;;;;;;;-142.91;100.00;56616.03;4995645;28;20215;-68
2022/12/15 06:50:47;;;;;;;9.52;8.52;;;;;;;-142.91;100.00;56616.03;4993540;28;20762;-69
2022/12/15 06:53:16;;;;;;;13.68;9.20;;;;;;;-142.91;100.00;56616.03;4996347;28;20196;-67
2022/12/15 06:55:43;;;;;;;9.23;8.27;;;;;;;-142.91;100.00;56616.03;4996222;28;20200;-70
2022/12/15 06:58:11;;;;;;;10.18;9.18;;;;;;;-142.91;100.00;56616.03;4995901;28;20231;-67
2022/12/15 07:00:41;;;;;;;13.65;11.23;;;;;;;-142.91;100.00;56616.03;4995478;28;20285;-65
2022/12/15 07:03:12;;;;;;;15.43;12.63;;;;;;;-142.91;100.00;56616.03;4995633;28;20611;-67
2022/12/15 07:05:39;;;;;;;17.08;13.95;;;;;;;-142.91;100.00;56616.03;4996645;28;20203;-68
2022/12/15 07:08:06;;;;;;;18.65;14.88;;;;;;;-142.91;100.00;56616.03;4994329;28;20681;-68
2022/12/15 07:10:32;;;;;;;26.00;17.00;;;;;;;-142.91;100.00;56616.03;4994453;28;20243;-67
2022/12/15 07:12:59;;;;;;;29.90;19.95;;;;;;;-142.91;100.00;56616.03;4999267;28;20239;-68
2022/12/15 07:15:26;;;;;;;37.17;24.27;;;;;;;-142.91;100.00;56616.03;5003194;28;20293;-67
2022/12/15 07:17:56;;;;;;;38.70;25.23;;;;;;;-142.91;100.00;56616.03;5005416;28;20231;-69
2022/12/15 07:20:23;;;;;;;43.05;29.48;;;;;;;-142.91;100.00;56616.03;5001616;28;20293;-67
2022/12/15 07:22:51;;;;;;;48.72;29.50;;;;;;;-142.91;100.00;56616.03;5003279;28;20195;-70
2022/12/15 07:25:18;;;;;;;50.90;32.35;;;;;;;-142.91;100.00;56616.03;5001029;28;20211;-66
2022/12/15 07:27:45;;;;;;;46.88;33.10;;;;;;;-142.91;100.00;56616.03;4994906;28;21092;-67
2022/12/15 07:30:13;;;;;;;51.30;32.63;;;;;;;-142.91;100.00;56616.03;4993260;28;20307;-68
2022/12/15 07:32:40;;;;;;;44.97;28.45;;;;;;;-142.91;100.00;56616.03;4996877;28;20667;-67
2022/12/15 07:35:09;;;;;;;37.85;27.27;;;;;;;-142.91;100.00;56616.03;4996851;28;20216;-66
2022/12/15 07:37:36;;;;;;;58.08;35.08;;;;;;;-142.91;100.00;56616.03;4995112;28;20266;-69
2022/12/15 07:40:04;;;;;;;60.67;38.13;;;;;;;-142.91;100.00;56616.03;4994289;28;20207;-66
2022/12/15 07:42:31;;;;;;;72.63;41.55;;;;;;;-142.91;100.00;56616.03;4995362;28;20208;-67
2022/12/15 07:44:58;;;;;;;44.33;30.10;;;;;;;-142.91;100.00;56616.03;4992549;28;20234;-64
2022/12/15 07:47:26;;;;;;;45.33;31.00;;;;;;;-142.91;100.00;56616.03;4998016;28;20204;-68
2022/12/15 07:49:54;;;;;;;44.42;27.83;;;;;;;-142.91;100.00;56616.03;4998783;28;20211;-66
2022/12/15 07:52:22;;;;;;;44.28;26.55;;;;;;;-142.91;100.00;56616.03;4999444;28;20203;-67
2022/12/15 07:54:49;;;;;;;37.78;25.27;;;;;;;-142.91;100.00;56616.03;5001953;28;20227;-72
2022/12/15 07:57:16;;;;;;;47.22;31.15;;;;;;;-142.91;100.00;56616.03;4999083;28;20725;-68
2022/12/15 07:59:43;;;;;;;53.38;34.97;;;;;;;-142.91;100.00;56616.03;4998523;28;20208;-70
2022/12/15 08:02:10;;;;;;;46.88;31.65;;;;;;;-142.91;100.00;56616.03;4997455;28;20298;-67
2022/12/15 08:04:37;;;;;;;36.75;25.08;;;;;;;-142.91;100.00;56616.03;4996107;28;20280;-71
2022/12/15 08:07:04;;;;;;;32.50;21.52;;;;;;;-142.91;100.00;56616.03;4995245;28;20350;-69
2022/12/15 08:09:32;;;;;;;30.02;20.48;;;;;;;-142.91;100.00;56616.03;4995430;28;20301;-72
2022/12/15 08:11:59;;;;;;;21.10;17.48;;;;;;;-142.91;100.00;56616.03;4993668;28;20219;-66
2022/12/15 08:14:27;;;;;;;33.50;21.33;;;;;;;-142.91;100.00;56616.03;4994851;28;20226;-68
2022/12/15 08:16:54;;;;;;;30.60;20.65;;;;;;;-142.91;100.00;56616.03;4999986;28;20227;-70
2022/12/15 08:19:21;;;;;;;38.17;22.70;;;;;;;-142.91;100.00;56616.03;5001234;28;20196;-65
2022/12/15 08:21:48;;;;;;;34.40;23.67;;;;;;;-142.91;100.00;56616.03;4999109;28;20212;-70
2022/12/15 08:24:16;;;;;;;33.60;24.25;;;;;;;-142.91;100.00;56616.03;5001241;28;20688;-66
2022/12/15 08:26:44;;;;;;;38.85;24.63;;;;;;;-142.91;100.00;56616.03;4994662;28;20207;-72
2022/12/15 08:29:13;;;;;;;37.42;24.98;;;;;;;-142.91;100.00;56616.03;4992774;28;20291;-65
2022/12/15 08:31:40;;;;;;;38.92;25.63;;;;;;;-142.91;100.00;56616.03;4992136;28;20235;-65
2022/12/15 08:34:07;;;;;;;35.58;23.33;;;;;;;-142.91;100.00;56616.03;4993388;28;20297;-65
2022/12/15 08:36:34;;;;;;;33.17;21.88;;;;;;;-142.91;100.00;56616.03;4993236;28;20317;-68
2022/12/15 08:39:01;;;;;;;31.80;21.65;;;;;;;-142.91;100.00;56616.03;4989119;28;20211;-69
2022/12/15 08:41:29;;;;;;;33.00;22.08;;;;;;;-142.91;100.00;56616.03;4991954;28;20218;-71
2022/12/15 08:43:59;;;;;;;27.10;20.05;;;;;;;-142.91;100.00;56616.03;4992372;28;20339;-68
2022/12/15 08:46:28;;;;;;;31.02;21.08;;;;;;;-142.91;100.00;56616.03;4992061;28;20234;-68
2022/12/15 08:48:55;;;;;;;25.90;17.98;;;;;;;-142.91;100.00;56616.03;4992064;28;20212;-68
2022/12/15 08:51:23;;;;;;;23.50;17.42;;;;;;;-142.91;100.00;56616.03;4990671;28;20235;-66
2022/12/15 08:53:50;;;;;;;28.42;18.20;;;;;;;-142.91;100.00;56616.03;4990473;28;20301;-69
2022/12/15 08:56:19;;;;;;;21.02;15.45;;;;;;;-142.91;100.00;56616.03;4992031;28;20206;-69
2022/12/15 08:58:47;;;;;;;23.45;16.10;;;;;;;-142.91;100.00;56616.03;4990712;28;20227;-69
2022/12/15 09:01:18;;;;;;;22.92;17.30;;;;;;;-142.91;100.00;56616.03;4990087;28;20248;-68
2022/12/15 09:03:45;;;;;;;21.50;15.90;;;;;;;-142.91;100.00;56616.03;4990889;28;20749;-70
2022/12/15 09:06:14;;;;;;;21.77;16.67;;;;;;;-142.91;100.00;56616.03;4992012;28;20676;-71
2022/12/15 09:08:41;;;;;;;19.67;15.95;;;;;;;-142.91;100.00;56616.03;4991545;28;20231;-71
2022/12/15 09:11:08;;;;;;;23.40;16.30;;;;;;;-142.91;100.00;56616.03;4990565;28;20269;-71
2022/12/15 09:13:35;;;;;;;17.45;13.95;;;;;;;-142.91;100.00;56616.03;4994048;28;20199;-70
2022/12/15 09:16:05;;;;;;;16.67;13.95;;;;;;;-142.91;100.00;56616.03;4996398;28;20604;-65
2022/12/15 09:18:34;;;;;;;20.00;13.65;;;;;;;-142.91;100.00;56616.03;4996762;28;20385;-68
2022/12/15 09:21:02;;;;;;;18.50;14.30;;;;;;;-142.91;100.00;56616.03;4995819;28;20210;-68
2022/12/15 09:23:29;;;;;;;19.50;15.07;;;;;;;-142.91;100.00;56616.03;4996785;28;20306;-70
2022/12/15 09:26:00;;;;;;;18.88;15.77;;;;;;;-142.91;100.00;56616.03;4995909;28;20207;-70
2022/12/15 09:28:28;;;;;;;21.92;15.32;;;;;;;-142.91;100.00;56616.03;4992722;28;20290;-67
2022/12/15 09:30:55;;;;;;;24.90;17.52;;;;;;;-142.91;100.00;56616.03;4992979;28;20229;-71
2022/12/15 09:33:21;;;;;;;17.58;15.23;;;;;;;-142.91;100.00;56616.03;4991617;28;20285;-64
2022/12/15 09:35:52;;;;;;;22.17;16.38;;;;;;;-142.91;100.00;56616.03;4992971;28;20631;-72
2022/12/15 09:38:20;;;;;;;22.35;17.27;;;;;;;-142.91;100.00;56616.03;4992713;28;20706;-68
2022/12/15 09:40:47;;;;;;;21.70;16.33;;;;;;;-142.91;100.00;56616.03;4990431;28;20207;-70
2022/12/15 09:43:18;;;;;;;30.00;19.08;;;;;;;-142.91;100.00;56616.03;4992537;28;20264;-69
2022/12/15 09:45:50;;;;;;;26.63;20.15;;;;;;;-142.91;100.00;56616.03;4993028;28;20211;-68
2022/12/15 09:48:20;;;;;;;30.60;20.67;;;;;;;-142.91;100.00;56616.03;4993822;28;20210;-70
2022/12/15 09:50:51;;;;;;;35.03;24.83;;;;;;;-142.91;100.00;56616.03;4993389;28;20199;-66
2022/12/15 09:53:24;;;;;;;35.50;25.75;;;;;;;-142.91;100.00;56616.03;4991930;28;20294;-69
2022/12/15 09:55:57;;;;;;;48.90;30.20;;;;;;;-142.91;100.00;56616.03;4992227;28;20247;-63
2022/12/15 09:58:40;;;;;;;58.05;28.92;;;;;;;-142.91;100.00;56616.03;4992347;28;20224;-64
2022/12/15 10:01:17;;;;;;;46.97;31.20;;;;;;;-142.91;100.00;56616.03;4991345;28;22100;-68
2022/12/15 10:03:54;;;;;;;42.33;27.95;;;;;;;-142.91;100.00;56616.03;4993550;28;20886;-69
2022/12/15 10:06:26;;;;;;;42.22;25.60;;;;;;;-142.91;100.00;56616.03;4996635;28;20203;-63
2022/12/15 10:08:58;;;;;;;40.30;24.77;;;;;;;-142.91;100.00;56616.03;4997637;28;20807;-64
2022/12/15 10:11:38;;;;;;;41.90;26.00;;;;;;;-142.91;100.00;56616.03;4992324;28;20767;-63
2022/12/15 10:14:16;;;;;;;37.95;26.40;;;;;;;-142.91;100.00;56616.03;4993820;28;20200;-71
2022/12/15 10:16:53;;;;;;;37.67;28.13;;;;;;;-142.91;100.00;56616.03;4993893;28;20211;-64
2022/12/15 10:19:26;;;;;;;37.88;25.65;;;;;;;-142.91;100.00;56616.03;4997230;28;20210;-67
2022/12/15 10:21:53;;;;;;;40.42;26.70;;;;;;;-142.91;100.00;56616.03;4993935;28;20617;-68
2022/12/15 10:24:23;;;;;;;47.03;26.05;;;;;;;-142.91;100.00;56616.03;4996273;28;20200;-68
2022/12/15 10:26:59;;;;;;;40.22;27.27;;;;;;;-142.91;100.00;56616.03;4996813;28;20210;-69
2022/12/15 10:29:34;;;;;;;43.50;27.35;;;;;;;-142.91;100.00;56616.03;4997879;28;20600;-63
2022/12/15 10:32:06;;;;;;;36.85;26.27;;;;;;;-142.91;100.00;56616.03;4993662;28;20240;-67
2022/12/15 10:34:34;;;;;;;47.97;26.25;;;;;;;-142.91;100.00;56616.03;4993092;28;20231;-68
2022/12/15 10:37:02;;;;;;;36.42;25.77;;;;;;;-142.91;100.00;56616.03;4991564;28;20258;-68
2022/12/15 10:39:38;;;;;;;38.10;26.50;;;;;;;-142.91;100.00;56616.03;4990531;28;20583;-71
2022/12/15 10:42:19;;;;;;;35.92;25.23;;;;;;;-142.91;100.00;56616.03;4990887;28;20588;-64
2022/12/15 10:44:47;;;;;;;36.65;25.40;;;;;;;-142.91;100.00;56616.03;4991109;28;20769;-67
2022/12/15 10:47:20;;;;;;;32.40;24.05;;;;;;;-142.91;100.00;56616.03;4990466;28;21695;-69
2022/12/15 10:49:48;;;;;;;36.40;25.95;;;;;;;-142.91;100.00;56616.03;4990592;28;20740;-66
2022/12/15 10:52:20;;;;;;;41.83;26.38;;;;;;;-142.91;100.00;56616.03;4990521;28;20729;-67
2022/12/15 10:54:51;;;;;;;38.17;26.17;;;;;;;-142.91;100.00;56616.03;4990986;28;20212;-66
2022/12/15 10:57:22;;;;;;;41.13;26.88;;;;;;;-142.91;100.00;56616.03;4991404;28;20266;-71
2022/12/15 10:59:49;;;;;;;39.83;25.25;;;;;;;-142.91;100.00;56616.03;4992019;28;20216;-71
2022/12/15 11:02:31;;;;;;;38.30;26.58;;;;;;;-142.91;100.00;56616.03;4992893;28;20214;-65
2022/12/15 11:05:00;;;;;;;36.03;24.58;;;;;;;-142.91;100.00;56616.03;4995515;28;20207;-70
2022/12/15 11:07:32;;;;;;;34.58;26.27;;;;;;;-142.91;100.00;56616.03;4994573;28;20212;-69
2022/12/15 11:10:08;;;;;;;42.42;26.90;;;;;;;-142.91;100.00;56616.03;4994039;28;20259;-67
2022/12/15 11:12:52;;;;;;;37.45;25.70;;;;;;;-142.91;100.00;56616.03;4994105;28;20262;-65
2022/12/15 11:15:41;;;;;;;39.13;25.70;;;;;;;-142.91;100.00;56616.03;4995443;28;20211;-67
2022/12/15 11:18:15;;;;;;;36.45;26.90;;;;;;;-142.91;100.00;56616.03;4995150;28;20699;-67
2022/12/15 11:20:47;;;;;;;39.20;26.35;;;;;;;-142.91;100.00;56616.03;4995069;28;20207;-68
2022/12/15 11:23:21;;;;;;;39.80;28.00;;;;;;;-142.91;100.00;56616.03;4994409;28;20207;-68
2022/12/15 11:25:55;;;;;;;38.15;27.27;;;;;;;-142.91;100.00;56616.03;4995376;28;20211;-65
2022/12/15 11:28:28;;;;;;;38.22;25.83;;;;;;;-142.91;100.00;56616.03;4993421;28;20702;-65
2022/12/15 11:31:00;;;;;;;36.65;24.70;;;;;;;-142.91;100.00;56616.03;4994172;28;20254;-66
2022/12/15 11:33:27;;;;;;;31.05;24.00;;;;;;;-142.91;100.00;56616.03;4993979;28;20853;-67
2022/12/15 11:36:08;;;;;;;37.60;25.30;;;;;;;-142.91;100.00;56616.03;4992121;28;20602;-66
2022/12/15 11:38:43;;;;;;;34.90;23.20;;;;;;;-142.91;100.00;56616.03;4992540;28;20268;-67
2022/12/15 11:41:26;;;;;;;31.25;23.17;;;;;;;-142.91;100.00;56616.03;4990426;28;20308;-64
2022/12/15 11:44:11;;;;;;;31.95;24.65;;;;;;;-142.91;100.00;56616.03;4992638;28;20710;-66
2022/12/15 11:46:43;;;;;;;31.38;24.05;;;;;;;-142.91;100.00;56616.03;4991894;28;21642;-66
2022/12/15 11:49:34;;;;;;;32.30;23.00;;;;;;;-142.91;100.00;56616.03;4992345;28;21207;-67
2022/12/15 11:52:09;;;;;;;30.60;22.92;;;;;;;-142.91;100.00;56616.03;4992871;28;20689;-66
2022/12/15 11:54:44;;;;;;;31.00;23.65;;;;;;;-142.91;100.00;56616.03;4994163;28;20245;-66
2022/12/15 11:57:34;;;;;;;33.03;24.88;;;;;;;-142.91;100.00;56616.03;4994750;28;20296;-67
2022/12/15 12:00:05;;;;;;;35.50;26.10;;;;;;;-142.91;100.00;56616.03;4992636;28;20199;-66
2022/12/15 12:02:57;;;;;;;36.25;26.45;;;;;;;-142.91;100.00;56616.03;4993193;28;20203;-64
2022/12/15 12:05:40;;;;;;;33.22;25.70;;;;;;;-142.91;100.00;56616.03;4994305;28;20208;-66
2022/12/15 12:08:18;;;;;;;36.50;25.50;;;;;;;-142.91;100.00;56616.03;4993840;28;20271;-65
2022/12/15 12:10:56;;;;;;;38.65;24.30;;;;;;;-142.91;100.00;56616.03;4993439;28;20849;-65
2022/12/15 12:13:31;;;;;;;35.83;23.48;;;;;;;-142.91;100.00;56616.03;4991533;28;20261;-66
2022/12/15 12:16:10;;;;;;;34.97;23.85;;;;;;;-142.91;100.00;56616.03;4994084;28;20297;-64
2022/12/15 12:18:42;;;;;;;35.33;25.02;;;;;;;-142.91;100.00;56616.03;4994276;28;20234;-65
2022/12/15 12:21:12;;;;;;;33.15;24.73;;;;;;;-142.91;100.00;56616.03;4995028;28;20581;-67
2022/12/15 12:23:45;;;;;;;31.58;23.63;;;;;;;-142.91;100.00;56616.03;4993797;28;20278;-68
2022/12/15 12:26:17;;;;;;;36.47;25.80;;;;;;;-142.91;100.00;56616.03;4993357;28;20660;-68
2022/12/15 12:28:53;;;;;;;32.15;24.73;;;;;;;-142.91;100.00;56616.03;4993691;28;20206;-65
2022/12/15 12:31:27;;;;;;;31.48;24.20;;;;;;;-142.91;100.00;56616.03;4992485;28;20234;-64
2022/12/15 12:33:58;;;;;;;34.47;24.40;;;;;;;-142.91;100.00;56616.03;4992799;28;20219;-67
2022/12/15 12:36:25;;;;;;;31.73;23.02;;;;;;;-142.91;100.00;56616.03;4993068;28;20334;-66
2022/12/15 12:38:56;;;;;;;37.53;24.55;;;;;;;-142.91;100.00;56616.03;4993611;28;20396;-64
2022/12/15 12:41:32;;;;;;;34.08;23.60;;;;;;;-142.91;100.00;56616.03;4991729;28;20203;-67
2022/12/15 12:44:09;;;;;;;32.60;23.23;;;;;;;-142.91;100.00;56616.03;4993971;28;20199;-67
2022/12/15 12:46:44;;;;;;;34.55;22.08;;;;;;;-142.91;100.00;56616.03;4994154;28;20203;-67
2022/12/15 12:49:19;;;;;;;35.45;23.08;;;;;;;-142.91;100.00;56616.03;4993388;28;20199;-67
2022/12/15 12:51:51;;;;;;;32.90;22.60;;;;;;;-142.91;100.00;56616.03;4992638;28;20257;-65
2022/12/15 12:54:44;;;;;;;30.85;22.77;;;;;;;-142.91;100.00;56616.03;4992704;28;20213;-64
2022/12/15 12:57:32;;;;;;;34.28;24.15;;;;;;;-142.91;100.00;56616.03;4993054;28;20344;-65
2022/12/15 13:00:02;;;;;;;41.67;26.88;;;;;;;-142.91;100.00;56616.03;4992232;28;20267;-67
2022/12/15 13:02:49;;;;;;;38.40;24.00;;;;;;;-142.91;100.00;56616.03;4992617;28;20269;-67
2022/12/15 13:05:29;;;;;;;29.52;23.33;;;;;;;-142.91;100.00;56616.03;4992749;28;20207;-65
2022/12/15 13:08:18;;;;;;;34.75;24.00;;;;;;;-142.91;100.00;56616.03;4993703;28;20227;-67
2022/12/15 13:10:46;;;;;;;36.97;23.42;;;;;;;-142.91;100.00;56616.03;4991551;28;20325;-64
2022/12/15 13:13:40;;;;;;;36.30;25.20;;;;;;;-142.91;100.00;56616.03;4992210;28;20225;-66
2022/12/15 13:16:17;;;;;;;39.00;27.13;;;;;;;-142.91;100.00;56616.03;4992518;28;20900;-66
2022/12/15 13:19:00;;;;;;;37.10;25.73;;;;;;;-142.91;100.00;56616.03;4992710;28;20223;-66
2022/12/15 13:21:53;;;;;;;35.15;24.17;;;;;;;-142.91;100.00;56616.03;4993101;28;20231;-68
2022/12/15 13:24:31;;;;;;;34.67;24.83;;;;;;;-142.91;100.00;56616.03;4974516;28;20203;-65
2022/12/15 13:27:12;;;;;;;28.52;22.73;;;;;;;-142.91;100.00;56616.03;4992669;28;20207;-65